Time;durP1;ratioP1;P1;durP2;ratioP2;P2;SDS_P1;SDS_P2;PMS_P1;PMS_P2;Temp;Humidity;BMP_temperature;BMP_pressure;BME280_temperature;BME280_humidity;BME280_pressure;Samples;Min_cycle;Max_cycle;Signal;HPM_P1;HPM_P2
2021/09/07 00:00:24;;;;;;;;;;;;;;;12.14;73.81;100655.38;5054227;28;1922;-56
2021/09/07 00:02:51;;;;;;;;;;;;;;;12.15;73.54;100662.50;5054472;28;958;-56
2021/09/07 00:05:17;;;;;;;;;;;;;;;12.12;73.30;100660.50;5054267;28;821;-56
2021/09/07 00:07:52;;;;;;;;;;;;;;;12.14;73.42;100663.69;5053987;28;819;-56
2021/09/07 00:10:19;;;;;;;;;;;;;;;12.16;73.07;100662.13;5053905;28;865;-56
2021/09/07 00:12:45;;;;;;;;;;;;;;;12.15;72.60;100656.97;5054120;28;877;-58
2021/09/07 00:15:14;;;;;;;;;;;;;;;12.13;72.39;100665.66;5053842;28;802;-58
2021/09/07 00:17:41;;;;;;;;;;;;;;;12.14;72.53;100666.44;5053682;28;877;-58
2021/09/07 00:20:08;;;;;;;;;;;;;;;12.11;71.89;100658.94;5053715;28;1937;-58
2021/09/07 00:22:36;;;;;;;;;;;;;;;12.11;71.84;100653.41;5053623;28;786;-57
2021/09/07 00:25:03;;;;;;;;;;;;;;;12.11;71.46;100659.72;5053485;28;838;-58
2021/09/07 00:27:30;;;;;;;;;;;;;;;12.14;71.46;100660.91;5053509;28;858;-56
2021/09/07 00:29:58;;;;;;;;;;;;;;;12.16;70.97;100664.09;5053493;28;807;-56
2021/09/07 00:32:24;;;;;;;;;;;;;;;12.18;71.03;100661.72;5053445;28;823;-56
2021/09/07 00:34:51;;;;;;;;;;;;;;;12.19;70.79;100660.53;5053400;28;881;-58
2021/09/07 00:37:18;;;;;;;;;;;;;;;12.23;70.56;100666.91;5053728;28;853;-56
2021/09/07 00:39:45;;;;;;;;;;;;;;;12.30;69.84;100663.34;5053263;28;1894;-56
2021/09/07 00:42:11;;;;;;;;;;;;;;;12.35;69.74;100654.63;5053347;28;1032;-57
2021/09/07 00:44:37;;;;;;;;;;;;;;;12.37;69.32;100661.34;5051955;28;1282;-56
2021/09/07 00:47:07;;;;;;;;;;;;;;;12.39;69.11;100656.22;5053214;28;865;-56
2021/09/07 00:49:36;;;;;;;;;;;;;;;12.38;68.99;100657.41;5053160;28;938;-58
2021/09/07 00:52:03;;;;;;;;;;;;;;;12.33;68.88;100660.59;5053135;28;795;-56
2021/09/07 00:54:31;;;;;;;;;;;;;;;12.25;69.22;100658.97;5053076;28;857;-57
2021/09/07 00:56:58;;;;;;;;;;;;;;;12.16;69.42;100664.09;5053092;28;814;-56
2021/09/07 00:59:26;;;;;;;;;;;;;;;12.08;69.79;100651.38;5053195;28;856;-56
2021/09/07 01:01:52;;;;;;;;;;;;;;;12.04;69.83;100660.50;5052697;28;1973;-56
2021/09/07 01:04:19;;;;;;;;;;;;;;;12.01;69.87;100655.75;5053198;28;802;-57
2021/09/07 01:06:46;;;;;;;;;;;;;;;12.02;69.82;100659.31;5052823;28;846;-58
2021/09/07 01:09:12;;;;;;;;;;;;;;;12.03;69.75;100661.69;5052774;28;810;-58
2021/09/07 01:11:39;;;;;;;;;;;;;;;11.99;70.03;100665.63;5052853;28;786;-58
2021/09/07 01:14:05;;;;;;;;;;;;;;;11.94;70.43;100664.03;5052676;28;818;-58
2021/09/07 01:16:32;;;;;;;;;;;;;;;11.89;70.36;100658.88;5052599;28;810;-58
2021/09/07 01:19:01;;;;;;;;;;;;;;;11.87;70.38;100652.13;5052648;28;837;-58
2021/09/07 01:21:27;;;;;;;;;;;;;;;11.84;70.75;100653.66;5052405;28;1881;-58
2021/09/07 01:23:54;;;;;;;;;;;;;;;11.84;70.74;100648.94;5051244;28;1405;-58
2021/09/07 01:26:21;;;;;;;;;;;;;;;11.84;70.81;100650.91;5052639;28;791;-58
2021/09/07 01:28:48;;;;;;;;;;;;;;;11.83;70.63;100649.31;5052361;28;1073;-58
2021/09/07 01:31:14;;;;;;;;;;;;;;;11.83;71.11;100647.34;5051015;28;1409;-58
2021/09/07 01:33:41;;;;;;;;;;;;;;;11.81;70.74;100641.41;5052276;28;846;-58
2021/09/07 01:36:08;;;;;;;;;;;;;;;11.83;71.00;100638.25;5051747;28;807;-58
2021/09/07 01:38:34;;;;;;;;;;;;;;;11.83;70.71;100641.03;5052337;28;869;-58
2021/09/07 01:41:01;;;;;;;;;;;;;;;11.81;70.55;100632.31;5052210;28;1886;-58
2021/09/07 01:43:28;;;;;;;;;;;;;;;11.81;70.56;100643.38;5051841;28;1416;-58
2021/09/07 01:45:55;;;;;;;;;;;;;;;11.81;70.25;100637.84;5052154;28;834;-58
2021/09/07 01:48:23;;;;;;;;;;;;;;;11.82;69.90;100631.91;5052057;28;852;-57
2021/09/07 01:50:51;;;;;;;;;;;;;;;11.82;69.75;100631.09;5052062;28;854;-58
2021/09/07 01:53:18;;;;;;;;;;;;;;;11.77;69.66;100628.72;5051968;28;866;-58
2021/09/07 01:55:45;;;;;;;;;;;;;;;11.72;70.05;100640.97;5051970;28;839;-58
2021/09/07 02:01:14;;;;;;;;;;;;;;;11.68;69.84;100631.06;5051780;28;1910;-58
2021/09/07 02:03:41;;;;;;;;;;;;;;;11.66;69.75;100631.47;5051850;28;827;-58
2021/09/07 02:06:08;;;;;;;;;;;;;;;11.65;69.60;100633.44;5051829;28;925;-58
2021/09/07 02:08:34;;;;;;;;;;;;;;;11.66;69.36;100628.69;5051773;28;826;-58
2021/09/07 02:11:01;;;;;;;;;;;;;;;11.72;69.34;100629.13;5051683;28;901;-58
2021/09/07 02:13:28;;;;;;;;;;;;;;;11.72;69.16;100626.34;5052060;28;818;-58
2021/09/07 02:15:53;;;;;;;;;;;;;;;11.69;69.22;100627.91;5051625;28;818;-58
2021/09/07 02:18:20;;;;;;;;;;;;;;;11.68;69.18;100625.53;5051680;28;925;-58
2021/09/07 02:20:48;;;;;;;;;;;;;;;11.64;68.78;100623.53;5051852;28;1890;-58
2021/09/07 02:23:14;;;;;;;;;;;;;;;11.62;69.17;100625.91;5051610;28;861;-58
2021/09/07 02:25:41;;;;;;;;;;;;;;;11.59;68.88;100625.91;5051793;28;853;-58
2021/09/07 02:28:08;;;;;;;;;;;;;;;11.56;69.23;100619.16;5051719;28;846;-58
2021/09/07 02:30:35;;;;;;;;;;;;;;;11.53;69.40;100625.47;5051544;28;873;-58
2021/09/07 02:33:01;;;;;;;;;;;;;;;11.53;68.85;100622.72;5051785;28;850;-56
2021/09/07 02:35:30;;;;;;;;;;;;;;;11.55;68.81;100617.56;5051632;28;934;-58
2021/09/07 02:37:57;;;;;;;;;;;;;;;11.54;68.80;100629.03;5051423;28;798;-58
2021/09/07 02:40:23;;;;;;;;;;;;;;;11.54;69.23;100621.53;5051249;28;1882;-58
2021/09/07 02:46:03;;;;;;;;;;;;;;;11.48;69.13;100634.16;5051404;28;668;-58
2021/09/07 02:48:29;;;;;;;;;;;;;;;11.47;68.82;100635.34;5053333;28;908;-58
2021/09/07 02:54:16;;;;;;;;;;;;;;;11.39;69.23;100626.22;5055399;28;604;-58
2021/09/07 02:56:42;;;;;;;;;;;;;;;11.35;69.20;100632.88;5055298;28;874;-58
2021/09/07 02:59:12;;;;;;;;;;;;;;;11.31;69.87;100637.63;5055119;28;806;-57
2021/09/07 03:01:38;;;;;;;;;;;;;;;11.31;69.60;100632.06;5055447;28;1906;-58
2021/09/07 03:04:04;;;;;;;;;;;;;;;11.29;69.75;100635.25;5055146;28;834;-58
2021/09/07 03:06:31;;;;;;;;;;;;;;;11.31;69.27;100632.88;5055079;28;865;-57
2021/09/07 03:08:57;;;;;;;;;;;;;;;11.31;69.34;100624.59;5055077;28;834;-58
2021/09/07 03:11:26;;;;;;;;;;;;;;;11.35;69.44;100633.72;5054987;28;842;-58
2021/09/07 03:13:52;;;;;;;;;;;;;;;11.32;69.46;100637.22;5055230;28;841;-58
2021/09/07 03:28:30;;;;;;;;;;;;;;;11.45;68.35;100619.09;5054682;28;617;-57
2021/09/07 03:30:57;;;;;;;;;;;;;;;11.48;68.36;100619.50;5054671;28;826;-58
2021/09/07 03:33:23;;;;;;;;;;;;;;;11.54;68.20;100629.84;5054632;28;893;-58
2021/09/07 03:35:50;;;;;;;;;;;;;;;11.57;68.09;100626.28;5054611;28;799;-58
2021/09/07 03:38:17;;;;;;;;;;;;;;;11.61;68.02;100631.84;5054515;28;795;-58
2021/09/07 03:40:43;;;;;;;;;;;;;;;11.62;67.51;100628.66;5054456;28;1959;-58
2021/09/07 03:55:21;;;;;;;;;;;;;;;11.94;66.45;100618.91;5054590;28;679;-58
2021/09/07 03:57:48;;;;;;;;;;;;;;;12.00;65.96;100625.66;5054176;28;838;-58
2021/09/07 04:00:16;;;;;;;;;;;;;;;12.09;65.66;100625.28;5053477;28;1975;-58
2021/09/07 04:02:43;;;;;;;;;;;;;;;12.12;65.94;100624.47;5054126;28;885;-58
2021/09/07 04:05:12;;;;;;;;;;;;;;;12.17;65.34;100627.69;5054210;28;835;-57
2021/09/07 04:19:50;;;;;;;;;;;;;;;12.64;63.50;100617.41;5054073;28;1898;-58
2021/09/07 04:22:17;;;;;;;;;;;;;;;12.71;63.14;100622.16;5053752;28;854;-57
2021/09/07 04:24:43;;;;;;;;;;;;;;;12.76;62.88;100626.50;5053726;28;818;-57
2021/09/07 04:27:09;;;;;;;;;;;;;;;12.87;62.78;100625.31;5053545;28;858;-57
2021/09/07 04:41:51;;;;;;;;;;;;;;;14.33;58.97;100638.25;5053798;28;1897;-58
2021/09/07 04:44:20;;;;;;;;;;;;;;;14.59;57.80;100643.25;5053242;28;1307;-57
2021/09/07 04:46:46;;;;;;;;;;;;;;;14.73;57.13;100639.56;5053303;28;1093;-57
2021/09/07 04:49:12;;;;;;;;;;;;;;;14.73;57.40;100642.34;5053216;28;859;-57
2021/09/07 04:51:39;;;;;;;;;;;;;;;14.73;56.96;100639.56;5051957;28;1183;-58
2021/09/07 04:54:10;;;;;;;;;;;;;;;14.80;57.00;100645.06;5053308;28;850;-57
2021/09/07 04:56:37;;;;;;;;;;;;;;;14.92;56.93;100643.78;5052993;28;885;-58
2021/09/07 04:59:03;;;;;;;;;;;;;;;14.99;56.53;100642.91;5053094;28;830;-57
2021/09/07 05:01:30;;;;;;;;;;;;;;;15.00;56.68;100638.91;5052879;28;1967;-57
2021/09/07 05:03:59;;;;;;;;;;;;;;;15.13;56.41;100645.56;5053094;28;818;-58
2021/09/07 05:06:25;;;;;;;;;;;;;;;15.30;55.46;100641.78;5052955;28;873;-57
2021/09/07 05:17:05;;;;;;;;;;;;;;;15.73;53.70;100662.03;5303483;22;1613;-57
2021/09/07 05:31:45;;;;;;;;;;;;;;;17.13;50.48;100663.50;5052753;28;621;-60
2021/09/07 05:34:11;;;;;;;;;;;;;;;17.22;50.22;100654.56;5052403;28;814;-58
2021/09/07 05:36:38;;;;;;;;;;;;;;;17.32;49.87;100671.13;5052320;28;861;-60
2021/09/07 05:39:05;;;;;;;;;;;;;;;17.52;49.77;100659.19;5052319;28;1003;-59
2021/09/07 05:41:31;;;;;;;;;;;;;;;17.61;49.51;100658.63;5052213;28;1894;-58
2021/09/07 05:56:50;;;;;;;;;;;;;;;18.79;46.96;100664.41;5052066;28;684;-58
2021/09/07 05:59:25;;;;;;;;;;;;;;;19.36;45.42;100668.50;5051793;28;1164;-58
2021/09/07 06:01:52;;;;;;;;;;;;;;;19.65;44.56;100659.31;5051788;28;1977;-58
2021/09/07 06:04:18;;;;;;;;;;;;;;;19.81;44.04;100661.28;5051937;28;818;-58
2021/09/07 06:06:47;;;;;;;;;;;;;;;19.95;43.84;100655.25;5051800;28;888;-58
2021/09/07 06:09:13;;;;;;;;;;;;;;;20.26;43.35;100663.13;5051806;28;854;-58
2021/09/07 06:11:40;;;;;;;;;;;;;;;20.66;42.14;100653.47;5051728;28;802;-60
2021/09/07 06:14:06;;;;;;;;;;;;;;;21.05;41.32;100657.75;5050425;28;1311;-60
2021/09/07 06:16:32;;;;;;;;;;;;;;;21.43;40.34;100656.84;5051232;28;1288;-58
2021/09/07 06:18:59;;;;;;;;;;;;;;;21.67;39.66;100668.44;5051711;28;806;-58
2021/09/07 06:21:26;;;;;;;;;;;;;;;21.61;39.68;100664.63;5051377;28;1910;-58
2021/09/07 06:23:53;;;;;;;;;;;;;;;22.02;39.16;100665.53;5051548;28;897;-58
2021/09/07 06:26:19;;;;;;;;;;;;;;;22.26;38.63;100663.00;5051545;28;854;-58
2021/09/07 06:28:46;;;;;;;;;;;;;;;22.39;38.88;100663.66;5051525;28;849;-58
2021/09/07 06:31:12;;;;;;;;;;;;;;;22.68;38.11;100670.16;5051624;28;858;-58
2021/09/07 06:33:38;;;;;;;;;;;;;;;22.70;37.63;100673.31;5051538;28;858;-58
2021/09/07 06:36:05;;;;;;;;;;;;;;;22.79;38.04;100678.97;5051493;28;908;-58
2021/09/07 06:38:31;;;;;;;;;;;;;;;23.09;37.90;100682.97;5051391;28;885;-58
2021/09/07 06:40:59;;;;;;;;;;;;;;;23.31;37.18;100673.59;5051389;28;1886;-58
2021/09/07 06:43:27;;;;;;;;;;;;;;;23.27;37.00;100682.19;5051401;28;802;-58
2021/09/07 06:45:54;;;;;;;;;;;;;;;23.30;37.22;100677.63;5051288;28;889;-58
2021/09/07 06:48:20;;;;;;;;;;;;;;;23.39;36.71;100681.25;5050032;28;1283;-58
2021/09/07 06:50:47;;;;;;;;;;;;;;;23.63;36.68;100678.56;5051390;28;873;-58
2021/09/07 07:05:25;;;;;;;;;;;;;;;25.42;33.59;100711.56;5051705;28;672;-58
2021/09/07 07:07:52;;;;;;;;;;;;;;;25.11;34.08;100703.44;5051604;28;885;-58
2021/09/07 07:10:19;;;;;;;;;;;;;;;25.28;34.30;100715.13;5051434;28;813;-58
2021/09/07 07:12:45;;;;;;;;;;;;;;;25.47;33.98;100722.19;5051892;28;758;-58
2021/09/07 07:15:12;;;;;;;;;;;;;;;25.47;34.99;100719.38;5051602;28;895;-58
2021/09/07 07:17:38;;;;;;;;;;;;;;;25.56;34.66;100717.72;5050897;28;1229;-58
2021/09/07 07:20:05;;;;;;;;;;;;;;;25.53;33.73;100715.88;5050932;28;1980;-58
2021/09/07 07:22:32;;;;;;;;;;;;;;;25.35;34.44;100722.47;5051059;28;786;-58
2021/09/07 07:24:59;;;;;;;;;;;;;;;25.35;34.12;100717.59;5051036;28;817;-58
2021/09/07 07:27:25;;;;;;;;;;;;;;;25.14;34.47;100716.63;5051232;28;794;-58
2021/09/07 07:29:51;;;;;;;;;;;;;;;25.21;34.45;100709.84;5051004;28;834;-58
2021/09/07 07:32:18;;;;;;;;;;;;;;;25.32;34.15;100709.28;5050944;28;805;-58
2021/09/07 07:34:46;;;;;;;;;;;;;;;25.71;33.68;100715.72;5053094;28;829;-58
2021/09/07 07:37:13;;;;;;;;;;;;;;;26.18;33.46;100711.19;5054574;28;876;-58
2021/09/07 07:39:40;;;;;;;;;;;;;;;26.61;33.06;100722.97;5054622;28;825;-58
2021/09/07 07:42:07;;;;;;;;;;;;;;;26.37;32.56;100714.56;5054387;28;1984;-58
2021/09/07 07:44:41;;;;;;;;;;;;;;;25.92;32.78;100719.47;5054373;28;877;-58
2021/09/07 07:47:07;;;;;;;;;;;;;;;25.83;33.04;100723.13;5054395;28;884;-58
2021/09/07 07:49:34;;;;;;;;;;;;;;;25.95;33.73;100723.38;5054354;28;916;-58
2021/09/07 07:52:00;;;;;;;;;;;;;;;25.95;33.20;100737.56;5054379;28;873;-58
2021/09/07 07:54:26;;;;;;;;;;;;;;;25.66;33.83;100727.72;5054265;28;842;-58
2021/09/07 07:56:52;;;;;;;;;;;;;;;25.60;34.33;100721.16;5054463;28;873;-58
2021/09/07 07:59:18;;;;;;;;;;;;;;;25.37;34.95;100728.41;5054383;28;826;-58
2021/09/07 08:01:53;;;;;;;;;;;;;;;25.37;34.90;100731.25;5054932;28;1953;-58
2021/09/07 08:04:20;;;;;;;;;;;;;;;25.40;35.48;100730.28;5054086;28;802;-58
2021/09/07 08:06:46;;;;;;;;;;;;;;;25.06;36.00;100740.88;5054139;28;830;-58
2021/09/07 08:12:18;;;;;;;;;;;;;;;25.43;35.81;100732.94;5049410;28;1043;-58
2021/09/07 08:14:45;;;;;;;;;;;;;;;24.36;37.32;100738.19;5053709;28;1003;-58
2021/09/07 08:17:12;;;;;;;;;;;;;;;24.07;39.08;100731.06;5053594;28;1237;-58
2021/09/07 08:20:02;;;;;;;;;;;;;;;24.39;37.82;100740.09;5053806;28;884;-58
2021/09/07 08:22:29;;;;;;;;;;;;;;;23.46;39.87;100724.50;5053716;28;1218;-58
2021/09/07 08:24:56;;;;;;;;;;;;;;;23.30;40.26;100723.56;5053709;28;826;-58
2021/09/07 08:27:25;;;;;;;;;;;;;;;24.10;38.84;100738.56;5053682;28;852;-58
2021/09/07 08:29:51;;;;;;;;;;;;;;;25.10;36.96;100735.03;5053649;28;814;-58
2021/09/07 08:32:18;;;;;;;;;;;;;;;25.49;36.02;100724.56;5053656;28;822;-58
2021/09/07 08:34:44;;;;;;;;;;;;;;;25.23;35.83;100707.31;5053661;28;873;-58
2021/09/07 08:37:13;;;;;;;;;;;;;;;24.67;37.18;100712.50;5053766;28;845;-58
2021/09/07 08:39:40;;;;;;;;;;;;;;;24.74;37.74;100720.63;5053433;28;834;-58
2021/09/07 08:42:09;;;;;;;;;;;;;;;25.14;36.94;100710.97;5053337;28;1906;-58
2021/09/07 08:44:38;;;;;;;;;;;;;;;25.10;36.47;100706.75;5053258;28;1070;-58
2021/09/07 08:47:04;;;;;;;;;;;;;;;24.90;37.19;100719.47;5053279;28;898;-58
2021/09/07 08:49:32;;;;;;;;;;;;;;;24.93;37.18;100701.53;5053220;28;857;-58
2021/09/07 08:51:58;;;;;;;;;;;;;;;25.26;37.16;100701.47;5053280;28;853;-58
2021/09/07 08:54:25;;;;;;;;;;;;;;;26.21;35.38;100701.69;5053140;28;950;-58
2021/09/07 08:56:52;;;;;;;;;;;;;;;26.78;34.42;100706.19;5053109;28;850;-58
2021/09/07 08:59:19;;;;;;;;;;;;;;;26.93;34.09;100697.63;5051797;28;1336;-58
2021/09/07 09:01:52;;;;;;;;;;;;;;;26.22;34.61;100705.28;5053155;28;1943;-58
2021/09/07 09:07:24;;;;;;;;;;;;;;;25.13;37.39;100680.31;5052914;28;621;-58
2021/09/07 09:09:51;;;;;;;;;;;;;;;25.19;37.10;100689.72;5052875;28;864;-58
2021/09/07 09:12:35;;;;;;;;;;;;;;;23.88;39.11;100690.78;5052789;28;1005;-57
2021/09/07 09:15:10;;;;;;;;;;;;;;;22.70;41.60;100698.66;5051437;28;1353;-58
2021/09/07 09:17:37;;;;;;;;;;;;;;;22.73;42.45;100690.06;5051058;28;1265;-58
2021/09/07 09:20:13;;;;;;;;;;;;;;;22.73;42.43;100695.72;5052607;28;1917;-58
2021/09/07 09:22:48;;;;;;;;;;;;;;;22.74;42.59;100702.13;5052597;28;865;-58
2021/09/07 09:25:21;;;;;;;;;;;;;;;22.66;42.69;100712.09;5052795;28;814;-58
2021/09/07 09:28:11;;;;;;;;;;;;;;;22.74;42.70;100705.72;5052483;28;803;-58
2021/09/07 09:30:40;;;;;;;;;;;;;;;22.94;42.82;100704.53;5052725;28;787;-58
2021/09/07 09:33:07;;;;;;;;;;;;;;;22.76;42.86;100708.06;5052673;28;799;-58
2021/09/07 09:35:47;;;;;;;;;;;;;;;22.44;43.28;100710.16;5052661;28;872;-58
2021/09/07 09:38:15;;;;;;;;;;;;;;;22.23;44.04;100717.41;5052447;28;787;-58
2021/09/07 09:40:41;;;;;;;;;;;;;;;22.24;44.25;100709.75;5052173;28;1949;-58
2021/09/07 09:43:22;;;;;;;;;;;;;;;22.31;43.90;100723.56;5051955;28;1093;-58
2021/09/07 09:45:53;;;;;;;;;;;;;;;23.16;42.80;100691.09;5052485;28;858;-58
2021/09/07 09:48:23;;;;;;;;;;;;;;;24.43;40.01;100693.44;5052131;28;814;-58
2021/09/07 09:50:54;;;;;;;;;;;;;;;25.03;39.53;100683.22;5052071;28;799;-58
2021/09/07 09:53:21;;;;;;;;;;;;;;;24.54;39.55;100678.81;5052136;28;826;-58
2021/09/07 09:55:48;;;;;;;;;;;;;;;23.97;40.57;100678.69;5051998;28;870;-58
2021/09/07 09:58:17;;;;;;;;;;;;;;;23.36;41.11;100690.63;5051444;28;815;-58
2021/09/07 10:00:46;;;;;;;;;;;;;;;22.72;42.51;100699.75;5034213;28;1985;-58
2021/09/07 10:24:14;;;;;;;;;;;;;;;24.71;37.61;100679.19;5091840;28;624;-58
2021/09/07 10:26:40;;;;;;;;;;;;;;;24.56;38.20;100673.47;5091981;28;862;-58
2021/09/07 10:29:07;;;;;;;;;;;;;;;25.01;37.88;100682.94;5091949;28;814;-58
2021/09/07 10:31:47;;;;;;;;;;;;;;;25.42;38.50;100680.44;5091921;28;867;-58
2021/09/07 10:34:14;;;;;;;;;;;;;;;26.49;35.83;100670.94;5073612;28;1318;-58
2021/09/07 10:39:43;;;;;;;;;;;;;;;25.61;35.52;100666.13;5091732;28;699;-58
2021/09/07 10:42:14;;;;;;;;;;;;;;;25.30;36.18;100670.16;5091409;28;1889;-58
2021/09/07 10:44:40;;;;;;;;;;;;;;;25.33;36.03;100660.72;5091631;28;810;-58
2021/09/07 10:47:25;;;;;;;;;;;;;;;25.30;35.54;100670.16;5091544;28;869;-58
2021/09/07 10:49:55;;;;;;;;;;;;;;;24.57;36.04;100660.13;5091663;28;844;-58
2021/09/07 10:52:27;;;;;;;;;;;;;;;24.12;37.07;100665.47;5091573;28;869;-58
2021/09/07 11:07:27;;;;;;;;;;;;;;;25.55;35.52;100657.53;5091534;28;664;-58
2021/09/07 11:09:54;;;;;;;;;;;;;;;25.74;36.58;100654.50;5093799;28;1245;-58
2021/09/07 11:12:27;;;;;;;;;;;;;;;26.20;35.80;100642.66;5095367;28;838;-58
2021/09/07 11:15:10;;;;;;;;;;;;;;;26.17;35.72;100652.16;5095296;28;885;-58
2021/09/07 11:18:00;;;;;;;;;;;;;;;25.38;36.69;100654.38;5095238;28;790;-58
2021/09/07 11:20:30;;;;;;;;;;;;;;;24.99;37.86;100648.69;5076757;28;1989;-58
2021/09/07 11:23:00;;;;;;;;;;;;;;;25.64;37.46;100650.97;5076943;28;1306;-58
2021/09/07 11:25:27;;;;;;;;;;;;;;;26.71;35.31;100644.22;5095470;28;810;-58
2021/09/07 11:27:58;;;;;;;;;;;;;;;25.90;36.44;100650.44;5095033;28;870;-58
2021/09/07 11:30:51;;;;;;;;;;;;;;;24.81;37.53;100660.13;5095078;28;794;-58
2021/09/07 11:45:29;;;;;;;;;;;;;;;23.87;39.61;100652.50;5095063;28;612;-58
2021/09/07 11:47:55;;;;;;;;;;;;;;;24.10;38.87;100644.63;5094674;28;791;-58
2021/09/07 11:50:29;;;;;;;;;;;;;;;24.57;38.76;100638.28;5094564;28;848;-58
2021/09/07 11:52:58;;;;;;;;;;;;;;;24.85;38.00;100649.41;5094581;28;798;-58
2021/09/07 11:55:45;;;;;;;;;;;;;;;24.34;38.14;100636.97;5094814;28;830;-58
2021/09/07 11:58:22;;;;;;;;;;;;;;;24.03;38.67;100645.75;5094431;28;795;-58
2021/09/07 12:01:01;;;;;;;;;;;;;;;23.86;39.49;100644.53;5095155;28;1906;-58
2021/09/07 12:03:46;;;;;;;;;;;;;;;24.43;39.26;100644.59;5094317;28;821;-58
2021/09/07 12:06:18;;;;;;;;;;;;;;;24.81;37.97;100638.28;5094391;28;806;-58
2021/09/07 12:08:50;;;;;;;;;;;;;;;24.37;38.65;100633.19;5094124;28;778;-58
2021/09/07 12:11:22;;;;;;;;;;;;;;;24.17;38.56;100641.44;5094388;28;841;-58
2021/09/07 12:14:08;;;;;;;;;;;;;;;23.76;39.03;100636.09;5094229;28;841;-58
2021/09/07 12:16:37;;;;;;;;;;;;;;;23.18;40.70;100639.91;5094670;28;932;-58
2021/09/07 12:22:40;;;;;;;;;;;;;;;22.99;40.76;100630.63;5094065;28;1985;-58
2021/09/07 12:25:17;;;;;;;;;;;;;;;24.06;38.16;100627.84;5093990;28;822;-58
2021/09/07 12:27:46;;;;;;;;;;;;;;;24.63;37.68;100616.59;5094185;28;813;-58
2021/09/07 12:30:28;;;;;;;;;;;;;;;24.65;37.59;100625.38;5094194;28;854;-58
2021/09/07 12:32:59;;;;;;;;;;;;;;;24.37;38.27;100623.94;5093772;28;856;-58
2021/09/07 12:35:30;;;;;;;;;;;;;;;24.30;37.92;100644.81;5093728;28;870;-58
2021/09/07 12:41:01;;;;;;;;;;;;;;;24.49;38.19;100628.59;5093640;28;2023;-58
2021/09/07 12:43:29;;;;;;;;;;;;;;;24.67;37.85;100627.72;5093614;28;802;-58
2021/09/07 12:49:33;;;;;;;;;;;;;;;24.20;37.78;100620.72;5093543;28;691;-58
2021/09/07 12:51:59;;;;;;;;;;;;;;;24.54;37.61;100605.34;5093443;28;849;-58
2021/09/07 12:54:59;;;;;;;;;;;;;;;;;;;;;
2021/09/07 12:57:34;;;;;;;;;;;;;;;25.94;35.36;100595.16;5092677;28;1604;-58
2021/09/07 13:00:01;;;;;;;;;;;;;;;26.48;34.37;100603.44;5093331;28;857;-58
2021/09/07 13:02:27;;;;;;;;;;;;;;;26.55;33.96;100599.41;5093219;28;1952;-59
2021/09/07 13:04:53;;;;;;;;;;;;;;;26.02;33.65;100609.69;5075108;28;1207;-58
2021/09/07 13:07:20;;;;;;;;;;;;;;;25.86;34.10;100617.41;5093240;28;846;-58
2021/09/07 13:09:46;;;;;;;;;;;;;;;25.95;34.13;100607.28;5093150;28;798;-58
2021/09/07 13:12:15;;;;;;;;;;;;;;;26.17;33.01;100618.94;5093296;28;877;-58
2021/09/07 13:14:43;;;;;;;;;;;;;;;26.03;33.31;100608.41;5093077;28;954;-58
2021/09/07 13:17:09;;;;;;;;;;;;;;;26.14;33.96;100604.97;5092963;28;790;-59
2021/09/07 13:19:36;;;;;;;;;;;;;;;26.25;33.38;100608.00;5092847;28;1267;-59
2021/09/07 13:22:02;;;;;;;;;;;;;;;26.18;33.30;100609.19;5074599;28;1999;-59
2021/09/07 13:24:28;;;;;;;;;;;;;;;26.36;33.09;100613.03;5093100;28;822;-58
2021/09/07 13:26:55;;;;;;;;;;;;;;;25.83;33.90;100592.13;5093161;28;850;-59
2021/09/07 13:29:21;;;;;;;;;;;;;;;25.31;35.05;100603.84;5092951;28;822;-58
2021/09/07 13:31:49;;;;;;;;;;;;;;;25.31;35.09;100603.84;5091994;28;893;-58
2021/09/07 13:34:15;;;;;;;;;;;;;;;25.20;35.53;100598.75;5092977;28;822;-58
2021/09/07 13:36:42;;;;;;;;;;;;;;;24.62;36.56;100609.38;5092644;28;822;-58
2021/09/07 13:39:09;;;;;;;;;;;;;;;23.55;37.18;100614.47;5092673;28;873;-58
2021/09/07 13:41:35;;;;;;;;;;;;;;;22.59;39.18;100608.94;5092425;28;1885;-58
2021/09/07 13:44:02;;;;;;;;;;;;;;;23.05;39.05;100600.59;5092405;28;839;-58
2021/09/07 13:46:29;;;;;;;;;;;;;;;23.79;37.56;100594.81;5092388;28;841;-58
2021/09/07 13:48:55;;;;;;;;;;;;;;;23.87;37.27;100603.75;5092381;28;818;-59
2021/09/07 13:51:22;;;;;;;;;;;;;;;23.93;37.55;100599.03;5092231;28;798;-58
2021/09/07 13:53:48;;;;;;;;;;;;;;;24.12;36.81;100599.75;5092448;28;806;-58
2021/09/07 13:56:14;;;;;;;;;;;;;;;24.40;36.07;100603.19;5092425;28;870;-58
2021/09/07 13:58:41;;;;;;;;;;;;;;;24.41;36.47;100596.28;5092145;28;790;-58
2021/09/07 14:01:08;;;;;;;;;;;;;;;24.39;36.42;100593.19;5092114;28;1886;-58
2021/09/07 14:03:34;;;;;;;;;;;;;;;24.42;36.37;100595.81;5092178;28;858;-58
2021/09/07 14:06:01;;;;;;;;;;;;;;;24.24;36.64;100593.88;5092015;28;883;-58
2021/09/07 14:08:29;;;;;;;;;;;;;;;23.79;37.39;100595.63;5091941;28;888;-58
2021/09/07 14:10:59;;;;;;;;;;;;;;;23.53;37.82;100600.06;5092298;28;857;-58
2021/09/07 14:13:28;;;;;;;;;;;;;;;23.16;37.65;100603.69;5091876;28;863;-58
2021/09/07 14:15:54;;;;;;;;;;;;;;;22.82;38.79;100599.13;5092561;28;917;-58
2021/09/07 14:18:21;;;;;;;;;;;;;;;22.93;39.04;100598.66;5091748;28;1229;-58
2021/09/07 14:20:47;;;;;;;;;;;;;;;22.69;39.65;100602.09;5092408;28;1909;-58
2021/09/07 14:23:17;;;;;;;;;;;;;;;22.87;39.47;100598.50;5092015;28;850;-58
2021/09/07 14:25:43;;;;;;;;;;;;;;;22.88;39.38;100596.47;5092042;28;826;-58
2021/09/07 14:28:10;;;;;;;;;;;;;;;23.03;39.82;100603.84;5092011;28;845;-58
2021/09/07 14:30:37;;;;;;;;;;;;;;;23.00;39.17;100607.63;5092002;28;873;-58
2021/09/07 14:33:03;;;;;;;;;;;;;;;23.02;38.32;100602.31;5091992;28;853;-58
2021/09/07 14:35:29;;;;;;;;;;;;;;;22.63;38.77;100603.94;5074082;28;842;-58
2021/09/07 14:37:55;;;;;;;;;;;;;;;22.64;39.05;100599.91;5091548;28;912;-58
2021/09/07 14:40:22;;;;;;;;;;;;;;;22.65;39.11;100600.69;5091603;28;1949;-58
2021/09/07 14:42:49;;;;;;;;;;;;;;;22.68;39.29;100603.34;5093278;28;833;-58
2021/09/07 14:45:15;;;;;;;;;;;;;;;22.90;38.86;100599.63;5080129;28;1215;-59
2021/09/07 14:47:42;;;;;;;;;;;;;;;22.77;38.82;100600.53;5098393;28;829;-58
2021/09/07 14:50:09;;;;;;;;;;;;;;;22.56;39.61;100616.31;5098554;28;810;-58
2021/09/07 14:52:38;;;;;;;;;;;;;;;22.41;39.65;100620.97;5098290;28;971;-58
2021/09/07 14:55:04;;;;;;;;;;;;;;;22.40;39.97;100619.38;5080006;28;856;-58
2021/09/07 14:57:31;;;;;;;;;;;;;;;22.40;40.12;100617.38;5098243;28;845;-58
2021/09/07 14:59:58;;;;;;;;;;;;;;;22.48;39.80;100619.88;5098307;28;781;-58
2021/09/07 15:02:24;;;;;;;;;;;;;;;22.41;40.12;100618.16;5098374;28;1945;-59
2021/09/07 15:04:51;;;;;;;;;;;;;;;21.98;41.02;100628.28;5098181;28;818;-59
2021/09/07 15:07:18;;;;;;;;;;;;;;;21.38;42.25;100635.72;5097985;28;826;-59
2021/09/07 15:09:45;;;;;;;;;;;;;;;21.13;42.80;100624.56;5098082;28;865;-59
2021/09/07 15:12:11;;;;;;;;;;;;;;;20.67;44.17;100624.13;5098231;28;876;-59
2021/09/07 15:14:38;;;;;;;;;;;;;;;20.56;44.55;100630.88;5098036;28;994;-58
2021/09/07 15:17:03;;;;;;;;;;;;;;;20.66;44.22;100634.59;5098057;28;790;-59
2021/09/07 15:19:30;;;;;;;;;;;;;;;20.55;44.02;100636.94;5097652;28;1189;-59
2021/09/07 15:21:56;;;;;;;;;;;;;;;20.51;44.44;100634.25;5097981;28;1914;-59
2021/09/07 15:24:23;;;;;;;;;;;;;;;20.55;44.39;100637.72;5097929;28;830;-59
2021/09/07 15:26:50;;;;;;;;;;;;;;;20.55;44.39;100634.91;5097923;28;893;-59
2021/09/07 15:29:17;;;;;;;;;;;;;;;20.44;44.75;100631.69;5097921;28;786;-59
2021/09/07 15:31:43;;;;;;;;;;;;;;;20.24;45.03;100626.28;5097919;28;842;-59
2021/09/07 15:34:10;;;;;;;;;;;;;;;20.09;45.81;100636.41;5097887;28;832;-59
2021/09/07 15:36:37;;;;;;;;;;;;;;;19.98;46.42;100628.31;5097800;28;826;-58
2021/09/07 15:39:03;;;;;;;;;;;;;;;19.77;47.04;100646.56;5097851;28;802;-58
2021/09/07 15:41:29;;;;;;;;;;;;;;;19.50;48.08;100644.91;5097709;28;1909;-58
2021/09/07 15:43:56;;;;;;;;;;;;;;;19.27;48.58;100647.97;5097888;28;803;-58
2021/09/07 15:46:23;;;;;;;;;;;;;;;19.15;49.28;100644.66;5097762;28;913;-58
2021/09/07 15:48:50;;;;;;;;;;;;;;;19.03;49.61;100645.38;5097739;28;811;-59